createdAt,value
2018-10-05T00:02:13.813Z,99.90
2018-10-05T00:04:42.677Z,99.90
2018-10-05T00:07:10.658Z,99.90
2018-10-05T00:09:38.522Z,99.90
2018-10-05T00:12:06.360Z,99.90
2018-10-05T00:14:34.144Z,99.90
2018-10-05T00:17:01.990Z,99.90
2018-10-05T00:19:29.781Z,99.90
2018-10-05T00:21:57.598Z,99.90
2018-10-05T00:24:25.419Z,99.90
2018-10-05T00:26:53.234Z,99.90
2018-10-05T00:29:21.042Z,99.90
2018-10-05T00:31:48.873Z,99.90
2018-10-05T00:34:16.699Z,99.90
2018-10-05T00:36:44.536Z,99.90
2018-10-05T00:39:12.352Z,99.90
2018-10-05T00:41:40.159Z,99.90
2018-10-05T00:44:07.975Z,99.90
2018-10-05T00:46:35.776Z,99.90
2018-10-05T00:49:03.676Z,99.90
2018-10-05T00:51:31.512Z,99.90
2018-10-05T00:53:59.714Z,99.90
2018-10-05T00:56:27.533Z,99.90
2018-10-05T00:58:55.331Z,99.90
2018-10-05T01:01:23.169Z,99.90
2018-10-05T01:03:51.030Z,99.90
2018-10-05T01:06:18.863Z,99.90
2018-10-05T01:08:46.704Z,99.90
2018-10-05T01:11:14.485Z,99.90
2018-10-05T01:13:42.303Z,99.90
2018-10-05T01:16:10.158Z,99.90
2018-10-05T01:18:37.973Z,99.90
2018-10-05T01:21:05.831Z,99.90
2018-10-05T01:23:33.645Z,99.90
2018-10-05T01:26:01.439Z,99.90
2018-10-05T01:28:29.260Z,99.90
2018-10-05T01:30:57.057Z,99.90
2018-10-05T01:33:24.847Z,99.90
2018-10-05T01:35:52.639Z,99.90
2018-10-05T01:38:20.404Z,99.90
2018-10-05T01:40:48.194Z,99.90
2018-10-05T01:43:16.047Z,99.90
2018-10-05T01:45:43.874Z,99.90
2018-10-05T01:48:11.693Z,99.90
2018-10-05T01:50:39.500Z,99.90
2018-10-05T01:53:08.313Z,99.90
2018-10-05T01:55:36.109Z,99.90
2018-10-05T01:58:03.909Z,99.90
2018-10-05T02:00:31.712Z,99.90
2018-10-05T02:02:59.540Z,99.90
2018-10-05T02:05:27.353Z,99.90
2018-10-05T02:07:55.183Z,99.90
2018-10-05T02:10:23.044Z,99.90
2018-10-05T02:12:50.861Z,99.90
2018-10-05T02:15:18.662Z,99.90
2018-10-05T02:17:46.525Z,99.90
2018-10-05T02:20:14.317Z,99.90
2018-10-05T02:22:42.146Z,99.90
2018-10-05T02:25:10.049Z,99.90
2018-10-05T02:27:38.012Z,99.90
2018-10-05T02:30:05.865Z,99.90
2018-10-05T02:32:33.682Z,99.90
2018-10-05T02:35:01.521Z,99.90
2018-10-05T02:37:29.346Z,99.90
2018-10-05T02:39:57.196Z,99.90
2018-10-05T02:42:25.027Z,99.90
2018-10-05T02:48:37.533Z,99.90
2018-10-05T02:51:26.176Z,99.90
2018-10-05T02:53:54.003Z,99.90
2018-10-05T02:56:21.859Z,99.90
2018-10-05T02:58:49.664Z,99.90
2018-10-05T03:01:29.697Z,99.90
2018-10-05T03:03:57.496Z,99.90
2018-10-05T03:06:26.348Z,99.90
2018-10-05T03:08:54.193Z,99.90
2018-10-05T03:11:22.014Z,99.90
2018-10-05T03:13:49.830Z,99.90
2018-10-05T03:16:17.674Z,99.90
2018-10-05T03:18:45.547Z,99.90
2018-10-05T03:21:14.367Z,99.90
2018-10-05T03:23:42.189Z,99.90
2018-10-05T03:26:10.074Z,99.90
2018-10-05T03:28:37.898Z,99.90
2018-10-05T03:31:05.855Z,99.90
2018-10-05T03:33:33.668Z,99.90
2018-10-05T03:36:01.521Z,99.90
2018-10-05T03:38:46.417Z,99.90
2018-10-05T03:41:24.548Z,99.90
2018-10-05T03:43:52.597Z,99.90
2018-10-05T03:46:20.662Z,99.90
2018-10-05T03:48:48.611Z,99.90
2018-10-05T03:51:16.636Z,99.90
2018-10-05T03:53:44.609Z,99.90
2018-10-05T03:56:12.692Z,99.90
2018-10-05T03:58:40.758Z,99.90
2018-10-05T04:01:08.833Z,99.90
2018-10-05T04:03:36.814Z,99.90
2018-10-05T04:06:04.828Z,99.90
2018-10-05T04:08:32.839Z,99.90
2018-10-05T04:11:00.859Z,99.90
2018-10-05T04:13:28.786Z,99.90
2018-10-05T04:15:56.801Z,99.90
2018-10-05T04:18:24.730Z,99.90
2018-10-05T04:20:52.733Z,99.90
2018-10-05T04:23:20.661Z,99.90
2018-10-05T04:25:48.685Z,99.90
2018-10-05T04:28:16.626Z,99.90
2018-10-05T04:30:44.767Z,99.90
2018-10-05T04:33:12.685Z,99.90
2018-10-05T04:35:42.782Z,99.90
2018-10-05T04:38:10.739Z,99.90
2018-10-05T04:40:38.748Z,99.90
2018-10-05T04:43:06.728Z,99.90
2018-10-05T04:45:34.856Z,99.90
2018-10-05T04:48:02.827Z,99.90
2018-10-05T04:50:30.860Z,99.90
2018-10-05T04:52:58.804Z,99.90
2018-10-05T04:55:26.849Z,99.90
2018-10-05T04:58:02.638Z,99.90
2018-10-05T05:00:30.502Z,99.90
2018-10-05T05:02:58.412Z,99.90
2018-10-05T05:05:28.775Z,99.90
2018-10-05T05:07:56.599Z,99.90
2018-10-05T05:10:25.465Z,99.90
2018-10-05T05:12:53.273Z,99.90
2018-10-05T05:15:22.134Z,99.90
2018-10-05T05:17:49.956Z,99.90
2018-10-05T05:20:17.790Z,99.90
2018-10-05T05:22:45.612Z,99.90
2018-10-05T05:25:13.421Z,99.90
2018-10-05T05:27:42.255Z,99.90
2018-10-05T05:30:10.047Z,99.90
2018-10-05T05:32:37.907Z,99.90
2018-10-05T05:35:05.855Z,99.90
2018-10-05T05:37:33.748Z,99.90
2018-10-05T05:40:01.647Z,99.90
2018-10-05T05:44:57.245Z,99.90
2018-10-05T05:47:26.063Z,99.90
2018-10-05T05:49:53.871Z,99.90
2018-10-05T05:52:21.754Z,99.90
2018-10-05T05:54:49.600Z,99.90
2018-10-05T05:57:17.488Z,99.90
2018-10-05T05:59:45.333Z,99.90
2018-10-05T06:02:13.229Z,99.90
2018-10-05T06:04:41.082Z,99.90
2018-10-05T06:07:08.931Z,99.90
2018-10-05T06:09:36.753Z,99.90
2018-10-05T06:12:06.811Z,99.90
2018-10-05T06:14:34.734Z,99.90
2018-10-05T06:17:02.746Z,99.90
2018-10-05T06:19:30.612Z,99.90
2018-10-05T06:22:47.583Z,99.90
2018-10-05T06:25:15.545Z,99.90
2018-10-05T06:27:43.615Z,99.90
2018-10-05T06:30:11.615Z,99.90
2018-10-05T06:32:39.589Z,99.90
2018-10-05T06:35:07.679Z,99.90
2018-10-05T06:37:35.683Z,99.90
2018-10-05T06:40:03.792Z,99.90
2018-10-05T06:42:31.803Z,99.90
2018-10-05T06:44:59.738Z,99.90
2018-10-05T06:47:27.733Z,99.90
2018-10-05T06:49:55.759Z,99.90
2018-10-05T06:52:23.818Z,99.90
2018-10-05T06:54:51.787Z,99.90
2018-10-05T06:57:19.813Z,99.90
2018-10-05T06:59:47.820Z,99.90
2018-10-05T07:02:15.796Z,99.90
2018-10-05T07:04:45.744Z,99.90
2018-10-05T07:07:13.745Z,99.90
2018-10-05T07:09:41.708Z,99.90
2018-10-05T07:12:09.688Z,99.90
2018-10-05T07:14:37.634Z,99.90
2018-10-05T07:17:05.706Z,99.90
2018-10-05T07:19:33.665Z,99.90
2018-10-05T07:22:01.639Z,99.90
2018-10-05T07:24:29.502Z,99.90
2018-10-05T07:26:58.326Z,99.90
2018-10-05T07:29:26.160Z,99.90
2018-10-05T07:31:54.035Z,99.90
2018-10-05T07:34:21.876Z,99.90
2018-10-05T07:36:49.724Z,99.90
2018-10-05T07:39:17.624Z,99.90
2018-10-05T07:41:45.495Z,99.90
2018-10-05T07:44:13.284Z,99.90
2018-10-05T07:46:41.155Z,99.90
2018-10-05T07:49:09.025Z,99.90
2018-10-05T07:51:37.970Z,99.90
2018-10-05T07:54:05.895Z,99.90
2018-10-05T07:56:33.746Z,99.90
2018-10-05T07:59:01.616Z,99.90
2018-10-05T08:01:29.473Z,99.90
2018-10-05T08:03:57.306Z,99.90
2018-10-05T08:06:25.119Z,99.90
2018-10-05T08:08:52.936Z,99.90
2018-10-05T08:11:20.800Z,99.90
2018-10-05T08:13:48.693Z,99.90
2018-10-05T08:16:16.516Z,99.90
2018-10-05T08:18:44.345Z,99.90
2018-10-05T08:21:12.285Z,99.90
2018-10-05T08:23:40.081Z,99.90
2018-10-05T08:26:07.899Z,99.90
2018-10-05T08:28:35.823Z,99.90
2018-10-05T08:31:03.660Z,99.90
2018-10-05T08:33:31.561Z,99.90
2018-10-05T08:35:59.385Z,99.90
2018-10-05T08:38:27.250Z,99.90
2018-10-05T08:40:55.046Z,99.90
2018-10-05T08:46:36.326Z,99.90
2018-10-05T08:49:17.062Z,99.90
2018-10-05T08:51:45.080Z,99.90
2018-10-05T08:54:12.880Z,99.90
2018-10-05T08:56:40.739Z,99.90
2018-10-05T08:59:09.555Z,99.90
2018-10-05T09:01:37.415Z,99.90
2018-10-05T09:04:05.217Z,99.90
2018-10-05T09:06:33.089Z,99.90
2018-10-05T09:09:00.929Z,99.90
2018-10-05T09:11:29.004Z,99.90
2018-10-05T09:13:56.858Z,99.90
2018-10-05T09:16:24.628Z,99.90
2018-10-05T09:18:52.452Z,99.90
2018-10-05T09:21:20.325Z,99.90
2018-10-05T09:23:48.145Z,99.90
2018-10-05T09:26:16.019Z,99.90
2018-10-05T09:28:43.842Z,99.90
2018-10-05T09:31:11.650Z,99.90
2018-10-05T09:33:39.730Z,99.90
2018-10-05T09:36:38.145Z,99.90
2018-10-05T09:39:06.503Z,99.90
2018-10-05T09:44:03.914Z,99.90
2018-10-05T09:46:31.807Z,99.90
2018-10-05T09:49:00.021Z,99.90
2018-10-05T09:51:27.870Z,99.90
2018-10-05T09:53:55.739Z,99.90
2018-10-05T09:56:23.614Z,99.90
2018-10-05T09:58:51.551Z,99.90
2018-10-05T10:01:25.039Z,99.90
2018-10-05T10:03:52.887Z,99.90
2018-10-05T10:06:20.701Z,99.90
2018-10-05T10:08:48.542Z,99.90
2018-10-05T10:11:16.347Z,99.90
2018-10-05T10:13:44.283Z,99.90
2018-10-05T10:16:12.163Z,99.90
2018-10-05T10:18:39.998Z,99.90
2018-10-05T10:21:07.824Z,99.90
2018-10-05T10:23:35.690Z,99.90
2018-10-05T10:26:03.620Z,99.90
2018-10-05T10:28:31.492Z,99.90
2018-10-05T10:30:59.349Z,99.90
2018-10-05T10:33:27.159Z,99.90
2018-10-05T10:35:55.029Z,99.90
2018-10-05T10:38:22.988Z,99.90
2018-10-05T10:40:50.819Z,99.90
2018-10-05T10:43:19.714Z,99.90
2018-10-05T10:45:47.537Z,99.90
2018-10-05T10:48:15.580Z,99.90
2018-10-05T10:50:43.350Z,99.90
2018-10-05T10:53:11.353Z,99.90
2018-10-05T10:55:39.133Z,99.70
2018-10-05T10:58:07.078Z,99.90
2018-10-05T11:00:34.970Z,99.90
2018-10-05T11:03:03.298Z,99.20
2018-10-05T11:05:31.182Z,98.40
2018-10-05T11:07:59.052Z,99.90
2018-10-05T11:10:26.893Z,99.80
2018-10-05T11:12:54.748Z,99.90
2018-10-05T11:15:22.660Z,98.80
2018-10-05T11:17:50.520Z,99.50
2018-10-05T11:20:18.419Z,99.50
2018-10-05T11:22:46.289Z,98.30
2018-10-05T11:25:14.387Z,98.60
2018-10-05T11:27:42.213Z,98.10
2018-10-05T11:30:11.099Z,98.40
2018-10-05T11:32:38.963Z,98.10
2018-10-05T11:35:07.929Z,96.50
2018-10-05T11:37:35.739Z,96.70
2018-10-05T11:40:03.943Z,96.30
2018-10-05T11:42:32.422Z,96.40
2018-10-05T11:45:00.250Z,96.20
2018-10-05T11:47:28.321Z,95.80
2018-10-05T11:49:56.183Z,95.20
2018-10-05T11:52:24.194Z,95.80
2018-10-05T11:54:52.868Z,94.70
2018-10-05T11:57:20.933Z,95.10
2018-10-05T11:59:48.936Z,92.90
2018-10-05T12:02:16.881Z,94.80
2018-10-05T12:04:44.726Z,94.50
2018-10-05T12:07:12.578Z,94.00
2018-10-05T12:09:40.499Z,92.20
2018-10-05T12:12:08.355Z,92.10
2018-10-05T12:14:36.254Z,92.50
2018-10-05T12:17:04.095Z,92.70
2018-10-05T12:19:31.929Z,93.50
2018-10-05T12:21:59.883Z,93.70
2018-10-05T12:24:27.714Z,92.50
2018-10-05T12:26:55.572Z,93.50
2018-10-05T12:29:23.408Z,92.20
2018-10-05T12:31:51.347Z,91.60
2018-10-05T12:34:19.165Z,92.30
2018-10-05T12:36:47.243Z,93.50
2018-10-05T12:39:15.115Z,91.20
2018-10-05T12:41:43.280Z,90.90
2018-10-05T12:44:11.199Z,90.40
2018-10-05T12:46:40.103Z,91.00
2018-10-05T12:49:07.955Z,90.40
2018-10-05T12:51:35.831Z,90.40
2018-10-05T12:54:03.768Z,90.80
2018-10-05T12:56:31.822Z,90.90
2018-10-05T12:58:59.697Z,91.70
2018-10-05T13:01:27.721Z,91.10
2018-10-05T13:03:55.550Z,88.90
2018-10-05T13:06:23.439Z,90.60
2018-10-05T13:08:51.330Z,91.10
2018-10-05T13:11:19.412Z,89.10
2018-10-05T13:13:47.439Z,89.80
2018-10-05T13:16:15.358Z,87.30
2018-10-05T13:18:43.382Z,89.40
2018-10-05T13:21:11.288Z,89.10
2018-10-05T13:23:39.373Z,89.40
2018-10-05T13:26:08.063Z,86.20
2018-10-05T13:28:36.132Z,88.70
2018-10-05T13:31:04.054Z,90.10
2018-10-05T13:33:32.137Z,88.70
2018-10-05T13:36:00.153Z,87.80
2018-10-05T13:38:29.217Z,85.60
2018-10-05T13:40:57.184Z,88.30
2018-10-05T13:43:25.042Z,88.30
2018-10-05T13:45:53.005Z,88.80
2018-10-05T13:48:20.983Z,86.40
2018-10-05T13:50:49.913Z,86.80
2018-10-05T13:53:17.778Z,86.00
2018-10-05T13:55:45.626Z,86.50
2018-10-05T13:58:14.468Z,83.60
2018-10-05T14:00:42.366Z,83.60
2018-10-05T14:03:10.225Z,87.20
2018-10-05T14:05:38.080Z,89.40
2018-10-05T14:08:05.916Z,86.70
2018-10-05T14:10:33.784Z,87.60
2018-10-05T14:13:01.645Z,87.90
2018-10-05T14:15:29.463Z,84.90
2018-10-05T14:17:57.317Z,84.90
2018-10-05T14:20:25.245Z,86.30
2018-10-05T14:22:53.066Z,84.80
2018-10-05T14:25:20.927Z,86.30
2018-10-05T14:27:48.791Z,87.50
2018-10-05T14:30:16.668Z,86.00
2018-10-05T14:32:44.548Z,86.20
2018-10-05T14:35:12.355Z,86.20
2018-10-05T14:37:40.229Z,85.60
2018-10-05T14:40:08.177Z,87.00
2018-10-05T14:42:36.047Z,87.90
2018-10-05T14:45:04.182Z,86.70
2018-10-05T14:47:32.071Z,88.40
2018-10-05T14:49:59.929Z,89.90
2018-10-05T14:52:27.902Z,89.40
2018-10-05T14:54:55.973Z,86.40
2018-10-05T14:57:24.888Z,86.90
2018-10-05T14:59:54.011Z,87.60
2018-10-05T15:02:22.095Z,88.10
2018-10-05T15:04:49.939Z,89.10
2018-10-05T15:07:17.796Z,89.40
2018-10-05T15:09:46.179Z,89.50
2018-10-05T15:12:14.074Z,88.50
2018-10-05T15:14:42.018Z,90.00
2018-10-05T15:17:09.877Z,90.90
2018-10-05T15:19:37.719Z,92.90
2018-10-05T15:22:05.666Z,94.10
2018-10-05T15:24:33.547Z,94.80
2018-10-05T15:27:02.482Z,95.70
2018-10-05T15:29:30.350Z,96.10
2018-10-05T15:31:58.202Z,97.10
2018-10-05T15:34:26.052Z,97.80
2018-10-05T15:36:53.903Z,98.40
2018-10-05T15:39:21.745Z,98.50
2018-10-05T15:41:49.621Z,97.60
2018-10-05T15:44:17.483Z,98.10
2018-10-05T15:46:58.746Z,98.90
2018-10-05T15:49:27.056Z,99.30
2018-10-05T15:51:54.889Z,99.80
2018-10-05T15:54:22.762Z,99.90
2018-10-05T15:56:50.976Z,99.90
2018-10-05T15:59:18.851Z,99.90
2018-10-05T16:01:46.763Z,99.90
2018-10-05T16:04:14.915Z,99.90
2018-10-05T16:06:42.786Z,99.90
2018-10-05T16:09:10.659Z,99.90
2018-10-05T16:11:38.670Z,99.90
2018-10-05T16:14:06.970Z,99.90
2018-10-05T16:16:35.234Z,99.90
2018-10-05T16:19:05.956Z,99.90
2018-10-05T16:21:34.722Z,99.90
2018-10-05T16:24:05.071Z,99.90
2018-10-05T16:26:32.944Z,99.90
2018-10-05T16:29:01.118Z,99.90
2018-10-05T16:31:28.988Z,99.90
2018-10-05T16:33:56.862Z,99.90
2018-10-05T16:36:24.733Z,99.90
2018-10-05T16:38:52.633Z,99.90
2018-10-05T16:41:20.565Z,99.90
2018-10-05T16:43:48.466Z,99.90
2018-10-05T16:46:16.377Z,99.90
2018-10-05T16:48:44.267Z,99.90
2018-10-05T16:51:13.313Z,99.90
2018-10-05T16:53:41.170Z,99.90
2018-10-05T16:56:11.036Z,99.90
2018-10-05T16:58:39.066Z,99.90
2018-10-05T17:01:06.922Z,99.90
2018-10-05T17:03:34.787Z,99.90
2018-10-05T17:06:02.664Z,99.90
2018-10-05T17:08:34.422Z,99.90
2018-10-05T17:11:02.346Z,99.90
2018-10-05T17:13:32.529Z,99.90
2018-10-05T17:16:00.483Z,99.90
2018-10-05T17:18:28.412Z,99.90
2018-10-05T17:20:56.342Z,99.90
2018-10-05T17:23:24.368Z,99.90
2018-10-05T17:25:52.225Z,99.90
2018-10-05T17:28:20.380Z,99.90
2018-10-05T17:30:50.243Z,99.90
2018-10-05T17:33:20.064Z,99.90
2018-10-05T17:35:49.014Z,99.90
2018-10-05T17:38:16.947Z,99.90
2018-10-05T17:40:44.991Z,99.90
2018-10-05T17:43:12.859Z,99.90
2018-10-05T17:45:42.935Z,99.90
2018-10-05T17:48:10.830Z,99.90
2018-10-05T17:50:38.851Z,99.90
2018-10-05T17:53:06.756Z,99.90
2018-10-05T17:55:35.915Z,99.90
2018-10-05T17:58:04.187Z,99.90
2018-10-05T18:00:32.096Z,99.90
2018-10-05T18:03:00.125Z,99.90
2018-10-05T18:05:28.014Z,99.90
2018-10-05T18:07:56.910Z,99.90
2018-10-05T18:10:24.788Z,99.90
2018-10-05T18:12:52.923Z,99.90
2018-10-05T18:15:20.779Z,99.90
2018-10-05T18:17:48.874Z,99.90
2018-10-05T18:20:16.802Z,99.90
2018-10-05T18:22:45.810Z,99.90
2018-10-05T18:25:13.743Z,99.90
2018-10-05T18:27:41.809Z,99.90
2018-10-05T18:30:09.898Z,99.90
2018-10-05T18:32:37.750Z,99.90
2018-10-05T18:35:05.901Z,99.90
2018-10-05T18:37:33.727Z,99.90
2018-10-05T18:40:01.693Z,99.90
2018-10-05T18:42:29.532Z,99.90
2018-10-05T18:44:57.437Z,99.90
2018-10-05T18:47:25.316Z,99.90
2018-10-05T18:49:53.506Z,99.90
2018-10-05T18:52:21.374Z,99.90
2018-10-05T18:54:49.399Z,99.90
2018-10-05T18:57:19.350Z,99.90
2018-10-05T18:59:47.263Z,99.90
2018-10-05T19:02:15.815Z,99.90
2018-10-05T19:04:44.049Z,99.90
2018-10-05T19:07:11.968Z,99.90
2018-10-05T19:09:39.924Z,99.90
2018-10-05T19:12:08.026Z,99.90
2018-10-05T19:14:35.901Z,99.90
2018-10-05T19:17:06.023Z,99.90
2018-10-05T19:19:33.988Z,99.90
2018-10-05T19:22:01.887Z,99.90
2018-10-05T19:24:29.824Z,99.90
2018-10-05T19:26:57.953Z,99.90
2018-10-05T19:29:26.223Z,99.90
2018-10-05T19:31:55.181Z,99.90
2018-10-05T19:34:23.026Z,99.90
2018-10-05T19:36:50.965Z,99.90
2018-10-05T19:39:18.832Z,99.90
2018-10-05T19:41:46.894Z,99.90
2018-10-05T19:44:14.788Z,99.90
2018-10-05T19:46:42.740Z,99.90
2018-10-05T19:49:10.624Z,99.90
2018-10-05T19:51:39.663Z,99.90
2018-10-05T19:54:07.590Z,99.90
2018-10-05T19:56:35.580Z,99.90
2018-10-05T19:59:03.466Z,99.90
2018-10-05T20:01:31.318Z,99.90
2018-10-05T20:03:59.177Z,99.90
2018-10-05T20:06:27.046Z,99.90
2018-10-05T20:08:54.933Z,99.90
2018-10-05T20:11:22.777Z,99.90
2018-10-05T20:13:50.637Z,99.90
2018-10-05T20:16:18.465Z,99.90
2018-10-05T20:18:46.518Z,99.90
2018-10-05T20:21:14.352Z,99.90
2018-10-05T20:23:42.177Z,99.90
2018-10-05T20:26:10.043Z,99.90
2018-10-05T20:28:37.995Z,99.90
2018-10-05T20:31:06.024Z,99.90
2018-10-05T20:33:33.965Z,99.90
2018-10-05T20:36:02.159Z,99.90
2018-10-05T20:38:30.007Z,99.90
2018-10-05T20:40:57.907Z,99.90
2018-10-05T20:43:25.755Z,99.90
2018-10-05T20:46:02.912Z,99.90
2018-10-05T20:48:31.529Z,99.90
2018-10-05T20:50:59.510Z,99.90
2018-10-05T20:53:39.354Z,99.90
2018-10-05T20:56:15.204Z,99.90
2018-10-05T20:58:44.894Z,99.90
2018-10-05T21:01:14.776Z,99.90
2018-10-05T21:03:44.871Z,99.90
2018-10-05T21:06:12.673Z,99.90
2018-10-05T21:08:41.564Z,99.90
2018-10-05T21:11:09.400Z,99.90
2018-10-05T21:13:37.358Z,99.90
2018-10-05T21:16:05.251Z,99.90
2018-10-05T21:18:33.340Z,99.90
2018-10-05T21:21:01.196Z,99.90
2018-10-05T21:23:29.237Z,99.90
2018-10-05T21:25:57.063Z,99.90
2018-10-05T21:28:26.028Z,99.90
2018-10-05T21:30:54.092Z,99.90
2018-10-05T21:33:22.017Z,99.90
2018-10-05T21:35:55.949Z,99.90
2018-10-05T21:38:23.831Z,99.90
2018-10-05T21:40:51.693Z,99.90
2018-10-05T21:43:19.518Z,99.90
2018-10-05T21:45:47.467Z,99.90
2018-10-05T21:48:15.291Z,99.90
2018-10-05T21:50:44.307Z,99.90
2018-10-05T21:53:12.137Z,99.90
2018-10-05T21:55:40.043Z,99.90
2018-10-05T21:58:07.890Z,99.90
2018-10-05T22:00:40.590Z,99.90
2018-10-05T22:03:09.034Z,99.90
2018-10-05T22:05:37.002Z,99.90
2018-10-05T22:08:04.914Z,99.90
2018-10-05T22:10:32.887Z,99.90
2018-10-05T22:13:00.804Z,99.90
2018-10-05T22:15:28.655Z,99.90
2018-10-05T22:17:56.592Z,99.90
2018-10-05T22:20:24.601Z,99.90
2018-10-05T22:22:52.448Z,99.90
2018-10-05T22:25:20.328Z,99.90
2018-10-05T22:27:48.219Z,99.90
2018-10-05T22:30:16.022Z,99.90
2018-10-05T22:32:44.010Z,99.90
2018-10-05T22:35:11.890Z,99.90
2018-10-05T22:37:39.877Z,99.90
2018-10-05T22:40:07.781Z,99.90
2018-10-05T22:42:35.829Z,99.90
2018-10-05T22:45:03.689Z,99.90
2018-10-05T22:47:31.539Z,99.90
2018-10-05T22:49:59.348Z,99.90
2018-10-05T22:52:44.371Z,99.90
2018-10-05T22:55:20.784Z,99.90
2018-10-05T22:57:48.654Z,99.90
2018-10-05T23:00:46.384Z,99.90
2018-10-05T23:33:27.244Z,99.90
2018-10-05T23:35:56.108Z,99.90
2018-10-05T23:38:24.788Z,99.90
2018-10-05T23:40:53.359Z,99.90
2018-10-05T23:43:22.003Z,99.90
2018-10-05T23:45:50.656Z,99.90
2018-10-05T23:48:19.398Z,99.90
2018-10-05T23:50:48.174Z,99.90
2018-10-05T23:53:17.006Z,99.90
2018-10-05T23:55:45.715Z,99.90
2018-10-05T23:58:14.318Z,99.90
